createdAt,value
2023-02-13T00:01:53.456Z,9.30
2023-02-13T00:04:19.970Z,10.03
2023-02-13T00:06:47.801Z,9.90
2023-02-13T00:09:14.915Z,10.03
2023-02-13T00:11:41.459Z,10.70
2023-02-13T00:14:07.950Z,9.77
2023-02-13T00:16:34.457Z,9.57
2023-02-13T00:19:00.818Z,9.37
2023-02-13T00:21:27.217Z,9.50
2023-02-13T00:23:53.577Z,9.60
2023-02-13T00:26:19.993Z,9.77
2023-02-13T00:28:46.470Z,9.97
2023-02-13T00:31:15.878Z,10.00
2023-02-13T00:33:42.734Z,9.17
2023-02-13T00:36:14.516Z,9.63
2023-02-13T00:38:42.648Z,9.37
2023-02-13T00:41:09.688Z,8.37
2023-02-13T00:43:36.774Z,9.40
2023-02-13T00:46:04.373Z,8.67
2023-02-13T00:48:33.108Z,9.47
2023-02-13T00:51:00.397Z,9.33
2023-02-13T00:53:27.865Z,8.80
2023-02-13T00:55:54.526Z,8.00
2023-02-13T00:58:21.832Z,8.40
2023-02-13T01:00:48.424Z,9.20
2023-02-13T01:03:15.973Z,8.60
2023-02-13T01:05:43.913Z,9.27
2023-02-13T01:08:11.794Z,8.77
2023-02-13T01:10:39.929Z,9.13
2023-02-13T01:13:06.895Z,9.60
2023-02-13T01:15:33.681Z,9.17
2023-02-13T01:18:00.896Z,9.23
2023-02-13T01:20:28.527Z,8.33
2023-02-13T01:22:55.518Z,8.53
2023-02-13T01:25:21.966Z,8.27
2023-02-13T01:27:48.507Z,9.57
2023-02-13T01:30:16.556Z,8.83
2023-02-13T01:32:44.573Z,8.87
2023-02-13T01:35:13.139Z,9.03
2023-02-13T01:37:39.691Z,9.17
2023-02-13T01:40:08.396Z,8.57
2023-02-13T01:42:35.643Z,8.80
2023-02-13T01:45:05.294Z,8.17
2023-02-13T01:47:59.626Z,8.23
2023-02-13T01:50:39.694Z,8.10
2023-02-13T01:53:24.458Z,7.90
2023-02-13T01:55:56.665Z,8.10
2023-02-13T01:58:30.157Z,8.10
2023-02-13T02:00:57.432Z,8.27
2023-02-13T02:03:36.169Z,8.23
2023-02-13T02:06:03.233Z,7.70
2023-02-13T02:08:31.457Z,7.97
2023-02-13T02:11:09.656Z,7.70
2023-02-13T02:13:36.420Z,8.23
2023-02-13T02:16:02.868Z,7.90
2023-02-13T02:18:29.749Z,7.77
2023-02-13T02:21:08.438Z,7.40
2023-02-13T02:24:20.960Z,7.10
2023-02-13T02:27:29.893Z,7.53
2023-02-13T02:30:14.985Z,7.90
2023-02-13T02:33:04.609Z,7.97
2023-02-13T02:35:49.542Z,7.53
2023-02-13T02:38:29.688Z,8.20
2023-02-13T02:41:41.066Z,7.90
2023-02-13T02:44:27.191Z,7.43
2023-02-13T02:47:45.024Z,7.93
2023-02-13T02:50:26.390Z,7.33
2023-02-13T02:53:12.119Z,7.77
2023-02-13T02:56:14.488Z,8.07
2023-02-13T02:59:05.900Z,7.57
2023-02-13T03:01:52.697Z,7.53
2023-02-13T03:04:52.443Z,7.73
2023-02-13T03:07:20.035Z,7.30
2023-02-13T03:10:18.203Z,8.00
2023-02-13T03:13:20.914Z,7.57
2023-02-13T03:16:09.160Z,7.57
2023-02-13T03:18:59.615Z,8.33
2023-02-13T03:22:06.397Z,8.03
2023-02-13T03:24:38.979Z,8.07
2023-02-13T03:27:09.982Z,8.10
2023-02-13T03:30:07.162Z,7.77
2023-02-13T03:32:46.388Z,7.73
2023-02-13T03:35:50.307Z,7.57
2023-02-13T03:38:36.960Z,7.67
2023-02-13T03:41:20.549Z,7.30
2023-02-13T03:43:56.114Z,8.30
2023-02-13T03:46:26.017Z,8.43
2023-02-13T03:49:13.180Z,7.67
2023-02-13T03:51:55.623Z,7.87
2023-02-13T03:54:47.635Z,7.90
2023-02-13T03:57:38.542Z,7.47
2023-02-13T04:00:09.944Z,8.07
2023-02-13T04:02:42.880Z,8.23
2023-02-13T04:05:15.512Z,8.30
2023-02-13T04:07:41.942Z,7.77
2023-02-13T04:10:15.149Z,8.20
2023-02-13T04:13:06.295Z,8.27
2023-02-13T04:15:41.617Z,7.90
2023-02-13T04:18:30.780Z,8.30
2023-02-13T04:20:57.419Z,8.20
2023-02-13T04:23:24.119Z,8.00
2023-02-13T04:25:53.986Z,8.20
2023-02-13T04:28:20.396Z,8.53
2023-02-13T04:30:46.937Z,8.27
2023-02-13T04:33:13.506Z,8.27
2023-02-13T04:35:39.883Z,8.47
2023-02-13T04:38:06.392Z,7.83
2023-02-13T04:40:32.995Z,8.23
2023-02-13T04:42:59.598Z,8.20
2023-02-13T04:45:26.087Z,8.23
2023-02-13T04:47:54.913Z,8.23
2023-02-13T04:50:21.862Z,8.27
2023-02-13T04:52:52.995Z,8.73
2023-02-13T04:55:19.324Z,8.53
2023-02-13T04:57:45.760Z,8.57
2023-02-13T05:00:12.607Z,8.53
2023-02-13T05:02:39.686Z,8.63
2023-02-13T05:05:06.404Z,7.97
2023-02-13T05:07:32.815Z,8.80
2023-02-13T05:09:59.205Z,8.60
2023-02-13T05:12:25.679Z,9.20
2023-02-13T05:14:52.057Z,8.13
2023-02-13T05:17:18.419Z,8.03
2023-02-13T05:19:44.804Z,8.27
2023-02-13T05:22:30.295Z,8.33
2023-02-13T05:24:56.829Z,8.50
2023-02-13T05:27:23.249Z,8.83
2023-02-13T05:29:49.618Z,8.00
2023-02-13T05:32:16.124Z,8.53
2023-02-13T05:34:42.515Z,8.83
2023-02-13T05:37:08.907Z,8.53
2023-02-13T05:39:35.232Z,8.17
2023-02-13T05:42:04.846Z,8.33
2023-02-13T05:44:31.827Z,8.90
2023-02-13T05:46:58.190Z,8.33
2023-02-13T05:49:24.730Z,9.93
2023-02-13T05:51:52.276Z,8.90
2023-02-13T05:54:18.737Z,9.20
2023-02-13T05:56:45.242Z,8.50
2023-02-13T05:59:12.108Z,9.27
2023-02-13T06:01:38.541Z,8.47
2023-02-13T06:04:05.283Z,8.67
2023-02-13T06:06:31.772Z,8.83
2023-02-13T06:08:58.209Z,9.50
2023-02-13T06:11:24.608Z,8.80
2023-02-13T06:13:51.085Z,8.83
2023-02-13T06:16:17.512Z,9.73
2023-02-13T06:18:43.863Z,8.77
2023-02-13T06:21:10.340Z,9.37
2023-02-13T06:23:36.661Z,10.03
2023-02-13T06:26:08.235Z,9.70
2023-02-13T06:28:35.028Z,9.87
2023-02-13T06:31:02.055Z,8.77
2023-02-13T06:33:28.640Z,8.77
2023-02-13T06:35:54.983Z,8.67
2023-02-13T06:38:21.567Z,9.00
2023-02-13T06:40:49.155Z,9.10
2023-02-13T06:43:16.214Z,9.40
2023-02-13T06:45:42.582Z,8.77
2023-02-13T06:48:09.192Z,8.80
2023-02-13T06:50:35.627Z,8.97
2023-02-13T06:53:02.077Z,8.70
2023-02-13T06:55:28.483Z,9.70
2023-02-13T06:57:54.953Z,9.33
2023-02-13T07:00:21.850Z,9.13
2023-02-13T07:02:48.272Z,9.27
2023-02-13T07:05:15.371Z,9.27
2023-02-13T07:07:42.770Z,9.87
2023-02-13T07:10:12.248Z,10.33
2023-02-13T07:12:38.671Z,10.20
2023-02-13T07:15:06.038Z,10.03
2023-02-13T07:17:33.870Z,11.27
2023-02-13T07:20:00.305Z,10.17
2023-02-13T07:22:26.767Z,10.27
2023-02-13T07:24:53.274Z,11.50
2023-02-13T07:27:19.754Z,10.40
2023-02-13T07:29:46.147Z,11.13
2023-02-13T07:32:12.536Z,11.40
2023-02-13T07:34:42.710Z,11.03
2023-02-13T07:37:15.776Z,11.47
2023-02-13T07:39:42.147Z,11.63
2023-02-13T07:42:08.460Z,11.00
2023-02-13T07:44:34.849Z,10.53
2023-02-13T07:47:01.361Z,10.50
2023-02-13T07:49:27.807Z,10.47
2023-02-13T07:51:56.498Z,12.07
2023-02-13T07:54:22.843Z,11.33
2023-02-13T07:56:49.197Z,10.60
2023-02-13T07:59:15.726Z,10.60
2023-02-13T08:01:42.143Z,10.37
2023-02-13T08:04:08.513Z,10.00
2023-02-13T08:06:34.966Z,10.43
2023-02-13T08:09:30.627Z,10.50
2023-02-13T08:11:57.214Z,10.97
2023-02-13T08:14:25.490Z,10.23
2023-02-13T08:16:52.741Z,10.07
2023-02-13T08:19:19.159Z,9.50
2023-02-13T08:21:45.806Z,9.60
2023-02-13T08:24:13.244Z,9.23
2023-02-13T08:26:39.955Z,9.57
2023-02-13T08:29:07.229Z,8.83
2023-02-13T08:31:33.794Z,8.87
2023-02-13T08:34:00.244Z,8.07
2023-02-13T08:36:26.671Z,8.13
2023-02-13T08:38:53.145Z,8.17
2023-02-13T08:41:22.320Z,8.57
2023-02-13T08:43:49.833Z,7.93
2023-02-13T08:46:17.357Z,8.07
2023-02-13T08:48:43.909Z,8.60
2023-02-13T08:51:12.326Z,7.80
2023-02-13T08:53:39.506Z,7.63
2023-02-13T08:56:06.610Z,7.40
2023-02-13T08:58:33.228Z,7.43
2023-02-13T09:00:59.690Z,7.90
2023-02-13T09:03:26.134Z,8.37
2023-02-13T09:05:52.677Z,7.80
2023-02-13T09:08:19.164Z,7.13
2023-02-13T09:10:45.625Z,7.73
2023-02-13T09:13:12.303Z,7.90
2023-02-13T09:15:43.662Z,7.67
2023-02-13T09:18:10.722Z,7.73
2023-02-13T09:20:37.067Z,7.80
2023-02-13T09:23:03.582Z,7.20
2023-02-13T09:25:30.054Z,7.30
2023-02-13T09:27:56.501Z,7.53
2023-02-13T09:30:23.853Z,7.37
2023-02-13T09:32:54.806Z,7.80
2023-02-13T09:35:22.157Z,7.03
2023-02-13T09:37:48.566Z,8.03
2023-02-13T09:40:23.218Z,6.63
2023-02-13T09:42:49.949Z,7.40
2023-02-13T09:45:20.349Z,7.13
2023-02-13T09:47:48.250Z,7.43
2023-02-13T09:50:22.180Z,6.80
2023-02-13T09:52:52.126Z,7.60
2023-02-13T09:55:37.334Z,8.90
2023-02-13T09:58:21.884Z,7.67
2023-02-13T10:00:53.896Z,7.23
2023-02-13T10:03:33.873Z,6.47
2023-02-13T10:06:06.242Z,6.80
2023-02-13T10:08:42.552Z,7.33
2023-02-13T10:11:12.148Z,6.60
2023-02-13T10:13:58.182Z,6.37
2023-02-13T10:16:36.642Z,6.63
2023-02-13T10:19:24.127Z,6.90
2023-02-13T10:21:58.716Z,7.43
2023-02-13T10:24:43.855Z,6.40
2023-02-13T10:27:19.222Z,6.57
2023-02-13T10:30:09.336Z,6.77
2023-02-13T10:33:11.172Z,6.83
2023-02-13T10:35:38.995Z,6.17
2023-02-13T10:38:15.856Z,6.57
2023-02-13T10:40:53.836Z,6.60
2023-02-13T10:43:24.714Z,6.90
2023-02-13T10:46:11.657Z,6.93
2023-02-13T10:48:38.027Z,6.60
2023-02-13T10:51:19.839Z,6.77
2023-02-13T10:53:58.279Z,6.93
2023-02-13T10:56:39.856Z,5.83
2023-02-13T10:59:30.662Z,6.10
2023-02-13T11:02:03.423Z,6.00
2023-02-13T11:04:30.305Z,6.07
2023-02-13T11:07:02.230Z,6.27
2023-02-13T11:09:33.892Z,6.03
2023-02-13T11:12:27.629Z,6.50
2023-02-13T11:15:06.274Z,6.40
2023-02-13T11:17:36.538Z,6.27
2023-02-13T11:20:22.002Z,6.03
2023-02-13T11:22:49.180Z,6.03
2023-02-13T11:25:22.935Z,5.00
2023-02-13T11:27:50.843Z,5.53
2023-02-13T11:30:23.185Z,6.17
2023-02-13T11:33:05.485Z,5.20
2023-02-13T11:35:34.839Z,5.30
2023-02-13T11:38:18.155Z,5.70
2023-02-13T11:41:05.958Z,5.57
2023-02-13T11:43:49.332Z,5.70
2023-02-13T11:46:19.448Z,5.47
2023-02-13T11:49:06.475Z,4.80
2023-02-13T11:51:48.193Z,5.60
2023-02-13T11:54:26.610Z,4.53
2023-02-13T11:57:05.094Z,5.27
2023-02-13T11:59:39.990Z,5.10
2023-02-13T12:02:18.799Z,5.43
2023-02-13T12:04:46.383Z,5.20
2023-02-13T12:07:17.717Z,5.13
2023-02-13T12:09:47.170Z,4.80
2023-02-13T12:12:22.692Z,4.57
2023-02-13T12:14:49.353Z,4.70
2023-02-13T12:17:32.669Z,4.70
2023-02-13T12:19:59.997Z,4.77
2023-02-13T12:23:04.045Z,4.87
2023-02-13T12:25:46.326Z,4.97
2023-02-13T12:28:28.677Z,4.23
2023-02-13T12:31:18.314Z,4.27
2023-02-13T12:34:12.579Z,4.03
2023-02-13T12:36:41.982Z,3.67
2023-02-13T12:39:25.536Z,4.40
2023-02-13T12:42:22.190Z,4.23
2023-02-13T12:45:05.508Z,3.87
2023-02-13T12:47:47.665Z,3.83
2023-02-13T12:50:17.090Z,3.97
2023-02-13T12:53:06.393Z,3.57
2023-02-13T12:55:50.241Z,3.70
2023-02-13T12:58:58.428Z,3.67
2023-02-13T13:01:31.484Z,4.00
2023-02-13T13:04:00.829Z,3.90
2023-02-13T13:06:33.329Z,3.83
2023-02-13T13:09:11.813Z,3.67
2023-02-13T13:11:57.544Z,3.23
2023-02-13T13:14:46.422Z,2.80
2023-02-13T13:17:35.764Z,2.60
2023-02-13T13:20:14.245Z,3.03
2023-02-13T13:22:58.134Z,2.57
2023-02-13T13:26:01.559Z,3.00
2023-02-13T13:28:41.823Z,2.47
2023-02-13T13:31:08.834Z,2.57
2023-02-13T13:33:39.452Z,2.70
2023-02-13T13:36:20.738Z,2.60
2023-02-13T13:39:14.574Z,2.60
2023-02-13T13:41:50.044Z,2.60
2023-02-13T13:44:45.810Z,2.50
2023-02-13T13:47:26.380Z,2.47
2023-02-13T13:49:55.619Z,2.57
2023-02-13T13:52:34.210Z,2.53
2023-02-13T13:55:04.284Z,2.67
2023-02-13T13:57:39.361Z,2.30
2023-02-13T14:00:08.784Z,2.73
2023-02-13T14:02:40.083Z,2.80
2023-02-13T14:05:29.530Z,2.50
2023-02-13T14:08:23.561Z,2.83
2023-02-13T14:10:49.816Z,3.30
2023-02-13T14:13:42.040Z,2.47
2023-02-13T14:16:12.318Z,2.40
2023-02-13T14:18:46.551Z,2.10
2023-02-13T14:21:23.287Z,1.97
2023-02-13T14:23:52.567Z,2.53
2023-02-13T14:26:30.211Z,2.10
2023-02-13T14:29:02.010Z,2.45
2023-02-13T14:31:31.919Z,2.13
2023-02-13T14:34:05.992Z,2.60
2023-02-13T14:36:41.306Z,2.72
2023-02-13T14:39:24.208Z,2.30
2023-02-13T14:41:56.499Z,2.10
2023-02-13T14:44:50.856Z,1.92
2023-02-13T14:47:33.988Z,1.83
2023-02-13T14:50:04.151Z,1.70
2023-02-13T14:52:37.670Z,2.15
2023-02-13T14:55:12.977Z,2.00
2023-02-13T14:57:46.905Z,1.98
2023-02-13T15:00:25.399Z,1.92
2023-02-13T15:02:58.642Z,1.90
2023-02-13T15:05:33.904Z,1.30
2023-02-13T15:08:30.537Z,1.60
2023-02-13T15:10:57.384Z,1.75
2023-02-13T15:13:37.170Z,1.35
2023-02-13T15:16:07.967Z,1.73
2023-02-13T15:18:48.555Z,1.60
2023-02-13T15:21:18.418Z,1.92
2023-02-13T15:23:50.275Z,2.03
2023-02-13T15:26:26.346Z,1.80
2023-02-13T15:29:00.491Z,2.10
2023-02-13T15:31:38.189Z,1.80
2023-02-13T15:34:29.487Z,1.50
2023-02-13T15:36:56.409Z,1.60
2023-02-13T15:39:26.004Z,1.50
2023-02-13T15:41:55.992Z,1.93
2023-02-13T15:44:27.355Z,2.00
2023-02-13T15:46:56.137Z,2.10
2023-02-13T15:49:25.458Z,1.80
2023-02-13T15:52:06.560Z,2.10
2023-02-13T15:54:35.463Z,2.10
2023-02-13T15:57:06.885Z,1.67
2023-02-13T15:59:39.598Z,2.20
2023-02-13T16:02:14.978Z,1.70
2023-02-13T16:04:42.465Z,1.80
2023-02-13T16:07:11.946Z,1.73
2023-02-13T16:09:38.461Z,1.57
2023-02-13T16:12:17.191Z,1.67
2023-02-13T16:14:49.431Z,2.10
2023-02-13T16:17:42.229Z,1.63
2023-02-13T16:20:11.946Z,1.60
2023-02-13T16:22:45.536Z,1.73
2023-02-13T16:25:11.930Z,2.03
2023-02-13T16:27:47.621Z,2.03
2023-02-13T16:30:51.391Z,2.00
2023-02-13T16:33:29.276Z,2.40
2023-02-13T16:36:16.264Z,2.00
2023-02-13T16:38:45.212Z,2.27
2023-02-13T16:41:17.719Z,2.13
2023-02-13T16:43:45.405Z,2.00
2023-02-13T16:46:11.826Z,1.80
2023-02-13T16:48:38.638Z,2.00
2023-02-13T16:51:05.234Z,2.20
2023-02-13T16:53:34.006Z,2.20
2023-02-13T16:56:07.638Z,2.13
2023-02-13T16:58:34.089Z,2.00
2023-02-13T17:01:02.788Z,2.23
2023-02-13T17:03:31.442Z,2.20
2023-02-13T17:06:01.894Z,2.10
2023-02-13T17:08:28.251Z,2.50
2023-02-13T17:11:06.235Z,1.77
2023-02-13T17:13:33.638Z,2.40
2023-02-13T17:16:00.227Z,2.20
2023-02-13T17:18:27.448Z,2.20
2023-02-13T17:20:54.677Z,2.20
2023-02-13T17:23:24.475Z,2.13
2023-02-13T17:25:53.522Z,2.30
2023-02-13T17:28:24.144Z,2.50
2023-02-13T17:30:52.204Z,2.40
2023-02-13T17:33:24.763Z,2.60
2023-02-13T17:35:52.236Z,3.20
2023-02-13T17:38:19.024Z,2.80
2023-02-13T17:40:45.714Z,3.10
2023-02-13T17:43:14.298Z,2.67
2023-02-13T17:45:41.191Z,2.60
2023-02-13T17:48:07.901Z,2.83
2023-02-13T17:50:35.778Z,2.67
2023-02-13T17:53:05.483Z,2.93
2023-02-13T17:55:33.833Z,3.13
2023-02-13T17:58:00.796Z,3.23
2023-02-13T18:00:30.192Z,2.53
2023-02-13T18:02:59.143Z,2.60
2023-02-13T18:05:25.741Z,3.20
2023-02-13T18:07:52.134Z,3.10
2023-02-13T18:10:22.396Z,2.77
2023-02-13T18:12:50.484Z,2.70
2023-02-13T18:15:17.395Z,2.87
2023-02-13T18:17:44.233Z,2.97
2023-02-13T18:20:13.762Z,2.93
2023-02-13T18:22:40.569Z,3.40
2023-02-13T18:25:07.822Z,3.37
2023-02-13T18:27:34.310Z,3.10
2023-02-13T18:30:00.721Z,3.20
2023-02-13T18:32:27.247Z,3.43
2023-02-13T18:34:53.695Z,2.90
2023-02-13T18:37:20.181Z,3.00
2023-02-13T18:39:46.610Z,3.80
2023-02-13T18:42:13.299Z,3.50
2023-02-13T18:44:40.568Z,3.00
2023-02-13T18:47:07.175Z,3.43
2023-02-13T18:49:33.565Z,3.20
2023-02-13T18:52:01.563Z,3.30
2023-02-13T18:54:28.218Z,3.73
2023-02-13T18:56:54.646Z,3.40
2023-02-13T18:59:22.782Z,3.90
2023-02-13T19:01:49.970Z,3.50
2023-02-13T19:04:16.414Z,3.97
2023-02-13T19:06:44.139Z,4.87
2023-02-13T19:09:10.870Z,6.60
2023-02-13T19:11:38.814Z,5.43
2023-02-13T19:14:06.124Z,5.90
2023-02-13T19:16:34.291Z,5.43
2023-02-13T19:19:03.213Z,5.43
2023-02-13T19:21:32.227Z,5.37
2023-02-13T19:23:58.703Z,4.90
2023-02-13T19:26:26.975Z,5.23
2023-02-13T19:28:55.739Z,7.30
2023-02-13T19:31:25.293Z,7.30
2023-02-13T19:33:52.647Z,6.20
2023-02-13T19:36:23.054Z,5.63
2023-02-13T19:38:55.176Z,4.73
2023-02-13T19:41:21.862Z,3.97
2023-02-13T19:43:51.806Z,4.37
2023-02-13T19:46:20.659Z,4.10
2023-02-13T19:48:47.461Z,3.73
2023-02-13T19:51:16.255Z,4.90
2023-02-13T19:53:42.997Z,5.33
2023-02-13T19:56:10.733Z,5.80
2023-02-13T19:58:38.335Z,6.47
2023-02-13T20:01:15.587Z,5.17
2023-02-13T20:03:42.744Z,5.67
2023-02-13T20:06:12.889Z,5.30
2023-02-13T20:08:41.355Z,8.17
2023-02-13T20:11:14.296Z,7.77
2023-02-13T20:13:40.740Z,6.50
2023-02-13T20:16:08.945Z,5.50
2023-02-13T20:18:36.589Z,4.77
2023-02-13T20:21:07.564Z,3.80
2023-02-13T20:23:34.118Z,3.73
2023-02-13T20:26:05.607Z,3.80
2023-02-13T20:28:32.065Z,3.57
2023-02-13T20:30:58.919Z,3.80
2023-02-13T20:33:26.294Z,3.93
2023-02-13T20:35:52.720Z,4.10
2023-02-13T20:38:19.187Z,3.83
2023-02-13T20:40:45.542Z,4.10
2023-02-13T20:43:11.934Z,3.67
2023-02-13T20:45:38.481Z,3.90
2023-02-13T20:48:04.867Z,4.33
2023-02-13T20:50:31.249Z,3.93
2023-02-13T20:52:58.442Z,4.23
2023-02-13T20:55:24.782Z,4.10
2023-02-13T20:57:51.115Z,3.57
2023-02-13T21:00:17.575Z,3.93
2023-02-13T21:02:43.963Z,4.40
2023-02-13T21:05:10.643Z,4.67
2023-02-13T21:07:37.052Z,4.20
2023-02-13T21:10:04.523Z,4.97
2023-02-13T21:12:30.968Z,4.30
2023-02-13T21:14:57.346Z,4.53
2023-02-13T21:17:23.694Z,4.77
2023-02-13T21:19:50.642Z,4.43
2023-02-13T21:22:17.018Z,4.00
2023-02-13T21:24:43.590Z,4.43
2023-02-13T21:27:10.780Z,4.83
2023-02-13T21:29:37.994Z,4.60
2023-02-13T21:32:04.775Z,4.57
2023-02-13T21:34:31.132Z,4.67
2023-02-13T21:36:57.549Z,4.30
2023-02-13T21:39:24.081Z,4.10
2023-02-13T21:41:50.433Z,5.30
2023-02-13T21:44:16.983Z,5.67
2023-02-13T21:46:45.311Z,5.27
2023-02-13T21:49:14.727Z,4.80
2023-02-13T21:51:41.226Z,4.30
2023-02-13T21:54:07.611Z,4.27
2023-02-13T21:56:37.705Z,4.67
2023-02-13T21:59:05.090Z,4.47
2023-02-13T22:01:37.560Z,4.23
2023-02-13T22:04:06.566Z,4.33
2023-02-13T22:06:36.206Z,4.20
2023-02-13T22:09:11.725Z,4.00
2023-02-13T22:11:39.066Z,4.27
2023-02-13T22:14:07.694Z,4.40
2023-02-13T22:16:36.735Z,4.20
2023-02-13T22:19:06.002Z,4.33
2023-02-13T22:21:33.868Z,4.13
2023-02-13T22:24:00.838Z,4.27
2023-02-13T22:26:29.760Z,4.37
2023-02-13T22:29:00.703Z,4.60
2023-02-13T22:31:27.150Z,4.23
2023-02-13T22:34:04.242Z,4.47
2023-02-13T22:36:32.574Z,4.23
2023-02-13T22:38:58.968Z,4.23
2023-02-13T22:41:27.134Z,4.13
2023-02-13T22:43:54.142Z,4.17
2023-02-13T22:46:25.746Z,4.23
2023-02-13T22:48:53.213Z,4.50
2023-02-13T22:51:30.348Z,4.63
2023-02-13T22:53:58.083Z,4.60
2023-02-13T22:56:25.657Z,4.90
2023-02-13T22:58:52.377Z,4.30
2023-02-13T23:01:21.463Z,4.30
2023-02-13T23:03:48.273Z,4.07
2023-02-13T23:06:15.839Z,4.50
2023-02-13T23:08:43.309Z,3.93
2023-02-13T23:11:33.417Z,4.10
2023-02-13T23:14:00.037Z,4.23
2023-02-13T23:16:27.718Z,4.30
2023-02-13T23:18:57.798Z,4.23
2023-02-13T23:21:25.499Z,4.13
2023-02-13T23:23:52.331Z,4.57
2023-02-13T23:26:19.271Z,4.10
2023-02-13T23:28:45.669Z,4.67
2023-02-13T23:31:12.508Z,4.77
2023-02-13T23:33:39.117Z,4.33
2023-02-13T23:36:05.938Z,4.57
2023-02-13T23:38:32.463Z,4.57
2023-02-13T23:41:06.820Z,4.80
2023-02-13T23:43:33.266Z,4.40
2023-02-13T23:45:59.685Z,4.80
2023-02-13T23:48:26.125Z,4.80
2023-02-13T23:50:53.400Z,4.50
2023-02-13T23:53:19.894Z,4.40
2023-02-13T23:55:46.438Z,4.70
2023-02-13T23:58:12.846Z,4.40
